Time;durP1;ratioP1;P1;durP2;ratioP2;P2;SDS_P1;SDS_P2;PMS_P1;PMS_P2;Temp;Humidity;BMP_temperature;BMP_pressure;BME280_temperature;BME280_humidity;BME280_pressure;Samples;Min_cycle;Max_cycle;Signal;HPM_P1;HPM_P2
2022/06/07 00:02:03;;;;;;;12.75;6.63;;;;;;;;;;5031330;28;20108;-39
2022/06/07 00:04:28;;;;;;;8.75;6.55;;;;;;;;;;5033019;28;20088;-39
2022/06/07 00:06:53;;;;;;;9.23;6.65;;;;;;;;;;5033136;28;20025;-39
2022/06/07 00:09:19;;;;;;;9.85;6.97;;;;;;;;;;5031462;28;20515;-39
2022/06/07 00:11:44;;;;;;;9.05;6.20;;;;;;;;;;5032650;28;20049;-39
2022/06/07 00:14:10;;;;;;;8.30;6.03;;;;;;;;;;5032851;28;20017;-38
2022/06/07 00:16:35;;;;;;;11.20;6.72;;;;;;;;;;5031244;28;20018;-39
2022/06/07 00:19:01;;;;;;;8.07;6.38;;;;;;;;;;5032798;28;20384;-38
2022/06/07 00:21:29;;;;;;;8.27;6.10;;;;;;;;;;5031399;28;20029;-39
2022/06/07 00:23:54;;;;;;;9.20;6.13;;;;;;;;;;5031336;28;20112;-39
2022/06/07 00:26:20;;;;;;;10.65;7.43;;;;;;;;;;5031326;28;20108;-39
2022/06/07 00:28:45;;;;;;;10.35;7.40;;;;;;;;;;5031131;28;20041;-38
2022/06/07 00:31:11;;;;;;;8.68;6.63;;;;;;;;;;5032284;28;20026;-39
2022/06/07 00:33:36;;;;;;;10.40;6.88;;;;;;;;;;5032372;28;20025;-39
2022/06/07 00:36:02;;;;;;;8.73;6.63;;;;;;;;;;5031519;28;20018;-39
2022/06/07 00:38:27;;;;;;;10.63;7.20;;;;;;;;;;5034904;28;20468;-39
2022/06/07 00:40:53;;;;;;;9.93;6.78;;;;;;;;;;5036021;28;20021;-39
2022/06/07 00:43:21;;;;;;;9.65;7.50;;;;;;;;;;5036027;28;20021;-39
2022/06/07 00:45:46;;;;;;;9.40;6.97;;;;;;;;;;5034902;28;20029;-39
2022/06/07 00:48:12;;;;;;;8.90;6.85;;;;;;;;;;5034426;28;20030;-39
2022/06/07 00:50:44;;;;;;;9.95;6.88;;;;;;;;;;5036450;28;20021;-39
2022/06/07 00:53:29;;;;;;;8.48;7.50;;;;;;;;;;5035845;28;20087;-38
2022/06/07 00:55:55;;;;;;;7.72;6.60;;;;;;;;;;5034123;28;20075;-38
2022/06/07 00:58:21;;;;;;;9.40;7.70;;;;;;;;;;5035744;28;20435;-39
2022/06/07 01:00:46;;;;;;;9.52;6.45;;;;;;;;;;5034633;28;20029;-38
2022/06/07 01:03:12;;;;;;;8.43;6.55;;;;;;;;;;5034670;28;20052;-38
2022/06/07 01:05:38;;;;;;;10.90;7.63;;;;;;;;;;5035949;28;20503;-39
2022/06/07 01:10:49;;;;;;;10.95;6.55;;;;;;;;;;5035538;28;20079;-39
2022/06/07 01:13:16;;;;;;;11.25;7.32;;;;;;;;;;5035387;28;20076;-39
2022/06/07 01:15:42;;;;;;;10.75;8.18;;;;;;;;;;5035560;28;20029;-39
2022/06/07 01:18:08;;;;;;;10.90;8.20;;;;;;;;;;5035354;28;20049;-38
2022/06/07 01:20:33;;;;;;;9.50;7.60;;;;;;;;;;5035317;28;20048;-38
2022/06/07 01:22:58;;;;;;;13.73;8.32;;;;;;;;;;5035334;28;20055;-39
2022/06/07 01:25:24;;;;;;;10.20;7.90;;;;;;;;;;5033982;28;20108;-38
2022/06/07 01:27:49;;;;;;;14.45;8.63;;;;;;;;;;5033728;28;20444;-39
2022/06/07 01:30:15;;;;;;;9.85;7.72;;;;;;;;;;5034032;28;20083;-38
2022/06/07 01:32:40;;;;;;;9.88;7.72;;;;;;;;;;5034031;28;20024;-38
2022/06/07 01:35:07;;;;;;;11.52;7.88;;;;;;;;;;5033854;28;20493;-38
2022/06/07 01:37:33;;;;;;;13.45;7.85;;;;;;;;;;5033959;28;20024;-38
2022/06/07 01:42:42;;;;;;;14.20;8.48;;;;;;;;;;5035266;28;20033;-38
2022/06/07 01:45:08;;;;;;;14.07;8.38;;;;;;;;;;5035169;28;20045;-38
2022/06/07 01:47:34;;;;;;;14.63;8.35;;;;;;;;;;5034482;28;20143;-38
2022/06/07 01:49:59;;;;;;;10.93;8.45;;;;;;;;;;5033708;28;20025;-38
2022/06/07 01:52:26;;;;;;;11.27;8.65;;;;;;;;;;5034612;28;20032;-38
2022/06/07 01:54:52;;;;;;;12.48;8.27;;;;;;;;;;5033334;28;20057;-38
2022/06/07 01:57:18;;;;;;;11.63;9.27;;;;;;;;;;5034989;28;20053;-38
2022/06/07 01:59:43;;;;;;;12.80;8.27;;;;;;;;;;5034609;28;20025;-38
2022/06/07 02:02:09;;;;;;;10.00;7.50;;;;;;;;;;5034869;28;20052;-38
2022/06/07 02:04:36;;;;;;;9.52;7.25;;;;;;;;;;5033346;28;20017;-38
2022/06/07 02:07:01;;;;;;;8.30;7.05;;;;;;;;;;5034693;28;20104;-38
2022/06/07 02:09:27;;;;;;;10.52;6.68;;;;;;;;;;5032974;28;20120;-40
2022/06/07 02:11:52;;;;;;;12.38;6.97;;;;;;;;;;5033321;28;20060;-38
2022/06/07 02:14:18;;;;;;;11.38;8.38;;;;;;;;;;5033343;28;20017;-38
2022/06/07 02:16:43;;;;;;;10.02;7.55;;;;;;;;;;5034421;28;20049;-38
2022/06/07 02:19:08;;;;;;;9.90;7.85;;;;;;;;;;5033079;28;20456;-38
2022/06/07 02:21:34;;;;;;;13.68;8.80;;;;;;;;;;5033034;28;20018;-39
2022/06/07 02:23:59;;;;;;;10.00;8.50;;;;;;;;;;5034227;28;20445;-38
2022/06/07 02:26:29;;;;;;;12.63;8.70;;;;;;;;;;5032827;28;20025;-38
2022/06/07 02:28:57;;;;;;;9.02;7.50;;;;;;;;;;5033000;28;20036;-37
2022/06/07 02:31:23;;;;;;;13.18;8.30;;;;;;;;;;5034238;28;20017;-38
2022/06/07 02:33:49;;;;;;;11.00;7.82;;;;;;;;;;5033038;28;20076;-38
2022/06/07 02:36:16;;;;;;;11.05;7.70;;;;;;;;;;5033951;28;20420;-38
2022/06/07 02:38:42;;;;;;;8.95;7.47;;;;;;;;;;5032573;28;20064;-39
2022/06/07 02:41:08;;;;;;;10.93;8.38;;;;;;;;;;5033704;28;20072;-38
2022/06/07 02:43:34;;;;;;;9.05;8.15;;;;;;;;;;5032502;28;20061;-38
2022/06/07 02:45:59;;;;;;;10.68;8.48;;;;;;;;;;5032273;28;20483;-38
2022/06/07 02:48:24;;;;;;;9.25;7.70;;;;;;;;;;5033820;28;20080;-38
2022/06/07 02:50:52;;;;;;;10.50;8.25;;;;;;;;;;5032313;28;20017;-38
2022/06/07 02:53:17;;;;;;;11.80;8.27;;;;;;;;;;5032206;28;20400;-39
2022/06/07 02:55:43;;;;;;;9.88;7.03;;;;;;;;;;5033636;28;20025;-38
2022/06/07 02:58:08;;;;;;;15.18;7.45;;;;;;;;;;5032427;28;20112;-38
2022/06/07 03:00:34;;;;;;;12.60;7.32;;;;;;;;;;5031600;28;20459;-38
2022/06/07 03:02:59;;;;;;;10.02;7.05;;;;;;;;;;5033310;28;20025;-38
2022/06/07 03:05:24;;;;;;;8.80;7.43;;;;;;;;;;5032126;28;20075;-38
2022/06/07 03:07:50;;;;;;;9.35;7.50;;;;;;;;;;5033254;28;20473;-38
2022/06/07 03:10:16;;;;;;;8.85;7.95;;;;;;;;;;5033034;28;20025;-38
2022/06/07 03:12:41;;;;;;;10.90;8.05;;;;;;;;;;5033465;28;20021;-38
2022/06/07 03:15:08;;;;;;;9.23;7.95;;;;;;;;;;5032040;28;20032;-38
2022/06/07 03:17:34;;;;;;;9.82;7.80;;;;;;;;;;5033001;28;20551;-38
2022/06/07 03:19:59;;;;;;;8.35;6.93;;;;;;;;;;5033055;28;20017;-38
2022/06/07 03:22:24;;;;;;;11.02;7.20;;;;;;;;;;5033408;28;20478;-38
2022/06/07 03:24:50;;;;;;;10.15;7.32;;;;;;;;;;5031662;28;20017;-39
2022/06/07 03:27:15;;;;;;;9.93;8.32;;;;;;;;;;5032861;28;20032;-38
2022/06/07 03:29:41;;;;;;;14.25;7.85;;;;;;;;;;5031738;28;20023;-38
2022/06/07 03:32:07;;;;;;;12.70;9.13;;;;;;;;;;5031798;28;20022;-38
2022/06/07 03:34:33;;;;;;;14.68;8.75;;;;;;;;;;5031560;28;20037;-38
2022/06/07 03:36:59;;;;;;;15.68;8.68;;;;;;;;;;5032687;28;20025;-38
2022/06/07 03:39:24;;;;;;;9.82;8.07;;;;;;;;;;5031386;28;20055;-38
2022/06/07 03:41:50;;;;;;;12.85;8.57;;;;;;;;;;5032925;28;20021;-38
2022/06/07 03:44:15;;;;;;;13.98;8.55;;;;;;;;;;5032533;28;20061;-38
2022/06/07 03:46:42;;;;;;;9.75;7.65;;;;;;;;;;5032862;28;20021;-38
2022/06/07 03:49:07;;;;;;;10.63;7.00;;;;;;;;;;5031484;28;20029;-38
2022/06/07 03:51:33;;;;;;;10.13;7.00;;;;;;;;;;5031546;28;20030;-39
2022/06/07 03:53:59;;;;;;;11.25;6.95;;;;;;;;;;5031404;28;20025;-39
2022/06/07 03:56:24;;;;;;;8.98;7.38;;;;;;;;;;5032589;28;20457;-39
2022/06/07 03:58:50;;;;;;;9.45;6.38;;;;;;;;;;5031670;28;20025;-38
2022/06/07 04:01:17;;;;;;;11.90;7.60;;;;;;;;;;5032707;28;20477;-38
2022/06/07 04:03:43;;;;;;;8.55;6.28;;;;;;;;;;5032859;28;20018;-39
2022/06/07 04:06:15;;;;;;;8.65;6.43;;;;;;;;;;5031351;28;20025;-38
2022/06/07 04:08:41;;;;;;;9.27;6.90;;;;;;;;;;5031168;28;20026;-39
2022/06/07 04:11:09;;;;;;;11.55;6.45;;;;;;;;;;5033381;28;20032;-38
2022/06/07 04:13:35;;;;;;;10.02;6.38;;;;;;;;;;5037200;28;20040;-39
2022/06/07 04:16:04;;;;;;;9.38;5.93;;;;;;;;;;5035399;28;20475;-39
2022/06/07 04:18:30;;;;;;;8.50;5.90;;;;;;;;;;5035419;28;20021;-39
2022/06/07 04:20:57;;;;;;;9.45;6.32;;;;;;;;;;5036495;28;20024;-39
2022/06/07 04:23:23;;;;;;;7.10;5.68;;;;;;;;;;5034823;28;20021;-39
2022/06/07 04:25:48;;;;;;;7.32;6.00;;;;;;;;;;5036400;28;20031;-38
2022/06/07 04:28:14;;;;;;;7.43;5.43;;;;;;;;;;5035039;28;20171;-38
2022/06/07 04:30:44;;;;;;;6.25;5.63;;;;;;;;;;5036417;28;20476;-38
2022/06/07 04:33:09;;;;;;;8.25;5.80;;;;;;;;;;5034820;28;20021;-39
2022/06/07 04:35:34;;;;;;;7.18;4.80;;;;;;;;;;5036070;28;20349;-38
2022/06/07 04:38:00;;;;;;;7.20;5.43;;;;;;;;;;5036096;28;20032;-38
2022/06/07 04:40:25;;;;;;;7.45;6.43;;;;;;;;;;5036217;28;20061;-38
2022/06/07 04:42:51;;;;;;;7.63;5.63;;;;;;;;;;5036097;28;20025;-38
2022/06/07 04:45:16;;;;;;;6.53;5.00;;;;;;;;;;5036089;28;20115;-38
2022/06/07 04:47:42;;;;;;;8.02;5.22;;;;;;;;;;5036229;28;20318;-38
2022/06/07 04:50:09;;;;;;;7.03;5.15;;;;;;;;;;5035728;28;20026;-38
2022/06/07 04:52:34;;;;;;;8.32;4.95;;;;;;;;;;5035705;28;20032;-39
2022/06/07 04:55:00;;;;;;;6.43;5.15;;;;;;;;;;5034769;28;20112;-38
2022/06/07 04:57:25;;;;;;;4.85;3.72;;;;;;;;;;5034619;28;20017;-38
2022/06/07 04:59:51;;;;;;;6.95;4.70;;;;;;;;;;5034531;28;20017;-38
2022/06/07 05:02:16;;;;;;;4.20;3.80;;;;;;;;;;5035613;28;20025;-38
2022/06/07 05:04:41;;;;;;;8.43;4.18;;;;;;;;;;5034295;28;20025;-38
2022/06/07 05:07:07;;;;;;;5.82;3.83;;;;;;;;;;5034145;28;20070;-38
2022/06/07 05:09:32;;;;;;;6.22;3.50;;;;;;;;;;5034133;28;20041;-38
2022/06/07 05:11:58;;;;;;;8.80;5.22;;;;;;;;;;5035696;28;20447;-38
2022/06/07 05:14:24;;;;;;;5.93;4.40;;;;;;;;;;5035838;28;20075;-38
2022/06/07 05:16:50;;;;;;;9.13;4.15;;;;;;;;;;5035283;28;20380;-38
2022/06/07 05:19:16;;;;;;;7.05;3.70;;;;;;;;;;5033968;28;20030;-39
2022/06/07 05:21:42;;;;;;;5.65;3.28;;;;;;;;;;5033555;28;20024;-40
2022/06/07 05:24:08;;;;;;;8.68;3.45;;;;;;;;;;5035183;28;20100;-38
2022/06/07 05:26:37;;;;;;;3.50;3.20;;;;;;;;;;5035240;28;20072;-38
2022/06/07 05:29:04;;;;;;;11.32;3.45;;;;;;;;;;5033923;28;20029;-38
2022/06/07 05:31:29;;;;;;;8.10;4.32;;;;;;;;;;5033779;28;20017;-38
2022/06/07 05:33:54;;;;;;;12.88;4.32;;;;;;;;;;5033612;28;20028;-38
2022/06/07 05:36:20;;;;;;;4.97;3.75;;;;;;;;;;5033655;28;20471;-39
2022/06/07 05:38:46;;;;;;;7.68;3.10;;;;;;;;;;5032892;28;20014;-39
2022/06/07 05:41:21;;;;;;;3.15;2.60;;;;;;;;;;5023530;28;20052;-43
2022/06/07 05:43:47;;;;;;;4.45;3.22;;;;;;;;;;5027046;28;20489;-39
2022/06/07 05:46:12;;;;;;;3.25;2.63;;;;;;;;;;5018953;28;20029;-41
2022/06/07 05:48:37;;;;;;;6.75;2.20;;;;;;;;;;5029895;28;20028;-38
2022/06/07 05:51:03;;;;;;;4.45;2.20;;;;;;;;;;5031688;28;20029;-39
2022/06/07 05:53:28;;;;;;;3.90;2.33;;;;;;;;;;5016202;28;20445;-39
2022/06/07 05:55:54;;;;;;;3.03;2.45;;;;;;;;;;5029415;28;20018;-38
2022/06/07 05:58:20;;;;;;;3.35;2.22;;;;;;;;;;5020699;28;20017;-38
2022/06/07 06:00:46;;;;;;;4.50;2.10;;;;;;;;;;5024438;28;20044;-37
2022/06/07 06:03:12;;;;;;;4.93;2.50;;;;;;;;;;5018037;28;20040;-38
2022/06/07 06:05:43;;;;;;;10.32;2.45;;;;;;;;;;5027425;28;20029;-39
2022/06/07 06:11:12;;;;;;;4.57;2.33;;;;;;;;;;5025345;28;20080;-38
2022/06/07 06:13:37;;;;;;;3.20;2.50;;;;;;;;;;5026904;28;20017;-39
2022/06/07 06:16:04;;;;;;;4.32;2.00;;;;;;;;;;5025747;28;20048;-38
2022/06/07 06:18:30;;;;;;;2.92;2.30;;;;;;;;;;5039265;28;20017;-38
2022/06/07 06:20:55;;;;;;;2.85;2.50;;;;;;;;;;5034408;28;20062;-38
2022/06/07 06:23:21;;;;;;;2.60;2.38;;;;;;;;;;5040570;28;20021;-38
2022/06/07 06:25:46;;;;;;;4.20;2.42;;;;;;;;;;5053446;28;20023;-38
2022/06/07 06:28:11;;;;;;;4.00;2.15;;;;;;;;;;5053335;28;20048;-37
2022/06/07 06:30:37;;;;;;;3.83;2.45;;;;;;;;;;5053129;28;20021;-38
2022/06/07 06:33:02;;;;;;;3.05;2.00;;;;;;;;;;5052393;28;20013;-38
2022/06/07 06:35:27;;;;;;;3.58;2.20;;;;;;;;;;5032359;28;20029;-39
2022/06/07 06:37:53;;;;;;;8.48;2.25;;;;;;;;;;5038089;28;20030;-39
2022/06/07 06:40:18;;;;;;;2.53;1.98;;;;;;;;;;5032978;28;20030;-40
2022/06/07 06:42:44;;;;;;;2.22;2.03;;;;;;;;;;5031589;28;20108;-39
2022/06/07 06:45:09;;;;;;;2.13;1.90;;;;;;;;;;5032186;28;20104;-39
2022/06/07 06:47:35;;;;;;;2.80;2.20;;;;;;;;;;5030834;28;20404;-38
2022/06/07 06:50:00;;;;;;;2.80;2.17;;;;;;;;;;5013874;28;20374;-39
2022/06/07 06:52:25;;;;;;;2.60;2.28;;;;;;;;;;5026289;28;20021;-41
2022/06/07 06:54:51;;;;;;;2.63;2.38;;;;;;;;;;5026072;28;20030;-39
2022/06/07 06:57:16;;;;;;;2.40;2.20;;;;;;;;;;5018950;28;20109;-40
2022/06/07 06:59:42;;;;;;;13.23;2.97;;;;;;;;;;5025563;28;20021;-38
2022/06/07 07:02:08;;;;;;;2.72;2.17;;;;;;;;;;5027517;28;20104;-39
2022/06/07 07:04:33;;;;;;;2.60;2.05;;;;;;;;;;5026549;28;20518;-41
2022/06/07 07:06:59;;;;;;;3.43;2.40;;;;;;;;;;5018451;28;20034;-41
2022/06/07 07:09:26;;;;;;;3.05;2.33;;;;;;;;;;5034077;28;20290;-38
2022/06/07 07:11:53;;;;;;;6.83;2.67;;;;;;;;;;5030913;28;20079;-38
2022/06/07 07:14:18;;;;;;;3.03;2.47;;;;;;;;;;5028302;28;20044;-38
2022/06/07 07:16:45;;;;;;;3.88;2.30;;;;;;;;;;5030875;28;20018;-38
2022/06/07 07:19:11;;;;;;;4.13;2.40;;;;;;;;;;5032138;28;20109;-38
2022/06/07 07:21:38;;;;;;;2.67;2.40;;;;;;;;;;5044375;28;20029;-38
2022/06/07 07:24:05;;;;;;;3.20;2.33;;;;;;;;;;5051390;28;20055;-38
2022/06/07 07:26:32;;;;;;;8.07;2.50;;;;;;;;;;5051764;28;20040;-38
2022/06/07 07:28:57;;;;;;;3.70;2.05;;;;;;;;;;5022069;28;20043;-38
2022/06/07 07:31:30;;;;;;;4.32;2.17;;;;;;;;;;5029074;28;20051;-39
2022/06/07 07:33:56;;;;;;;2.40;2.20;;;;;;;;;;5029989;28;20025;-38
2022/06/07 07:36:22;;;;;;;4.30;2.35;;;;;;;;;;5030920;28;20023;-38
2022/06/07 07:38:48;;;;;;;2.65;2.45;;;;;;;;;;5032452;28;20099;-37
2022/06/07 07:41:17;;;;;;;6.15;3.08;;;;;;;;;;5031274;28;20043;-38
2022/06/07 07:43:42;;;;;;;2.80;2.60;;;;;;;;;;5030321;28;20045;-38
2022/06/07 07:46:08;;;;;;;4.60;2.53;;;;;;;;;;5029925;28;20091;-37
2022/06/07 07:48:34;;;;;;;3.13;2.55;;;;;;;;;;5030408;28;20388;-37
2022/06/07 07:51:03;;;;;;;9.15;2.70;;;;;;;;;;5028606;28;20104;-39
2022/06/07 07:53:28;;;;;;;4.82;3.15;;;;;;;;;;5023059;28;20021;-37
2022/06/07 07:55:54;;;;;;;3.45;2.58;;;;;;;;;;5034337;28;20032;-38
2022/06/07 07:58:20;;;;;;;3.05;2.65;;;;;;;;;;5029227;28;20049;-37
2022/06/07 08:00:46;;;;;;;6.30;2.88;;;;;;;;;;5019594;28;21972;-38
2022/06/07 08:03:12;;;;;;;4.40;2.80;;;;;;;;;;5029603;28;20075;-38
2022/06/07 08:05:37;;;;;;;4.55;2.67;;;;;;;;;;5031143;28;20385;-37
2022/06/07 08:08:03;;;;;;;6.50;2.45;;;;;;;;;;5026140;28;20034;-39
2022/06/07 08:10:29;;;;;;;6.65;1.92;;;;;;;;;;5013656;28;20122;-38
2022/06/07 08:12:55;;;;;;;5.22;2.40;;;;;;;;;;5026405;28;20160;-38
2022/06/07 08:15:23;;;;;;;3.03;2.28;;;;;;;;;;5025101;28;20050;-42
2022/06/07 08:17:48;;;;;;;2.70;2.20;;;;;;;;;;5028013;28;20031;-38
2022/06/07 08:20:14;;;;;;;6.78;2.67;;;;;;;;;;5026844;28;20029;-38
2022/06/07 08:22:39;;;;;;;5.35;2.47;;;;;;;;;;5023312;28;20021;-40
2022/06/07 08:25:05;;;;;;;5.20;2.30;;;;;;;;;;5027003;28;20104;-42
2022/06/07 08:27:30;;;;;;;5.43;2.30;;;;;;;;;;5026396;28;20053;-42
2022/06/07 08:29:55;;;;;;;2.30;2.10;;;;;;;;;;5027687;28;20036;-40
2022/06/07 08:32:21;;;;;;;5.37;2.43;;;;;;;;;;5031417;28;20258;-39
2022/06/07 08:37:33;;;;;;;3.95;2.17;;;;;;;;;;5028520;28;20288;-40
2022/06/07 08:39:58;;;;;;;2.40;2.20;;;;;;;;;;5031659;28;20020;-39
2022/06/07 08:42:31;;;;;;;2.72;2.10;;;;;;;;;;5027712;28;20033;-42
2022/06/07 08:44:58;;;;;;;5.40;2.53;;;;;;;;;;5028338;28;20416;-39
2022/06/07 08:47:27;;;;;;;2.05;1.85;;;;;;;;;;5028411;28;20116;-40
2022/06/07 08:49:52;;;;;;;;;;;;;;;;;;5026818;28;20033;-39
2022/06/07 08:52:26;;;;;;;2.60;1.97;;;;;;;;;;5036849;28;20284;-40
2022/06/07 08:54:52;;;;;;;2.05;1.77;;;;;;;;;;5028906;28;20476;-39
2022/06/07 08:57:20;;;;;;;2.03;1.83;;;;;;;;;;5027891;28;20041;-39
2022/06/07 08:59:47;;;;;;;4.88;2.15;;;;;;;;;;5026728;28;20050;-39
2022/06/07 09:02:21;;;;;;;3.67;1.88;;;;;;;;;;5033970;28;20026;-39
2022/06/07 09:04:47;;;;;;;6.50;2.17;;;;;;;;;;5023884;28;20043;-38
2022/06/07 09:07:14;;;;;;;11.20;2.43;;;;;;;;;;5036248;28;20025;-39
2022/06/07 09:12:29;;;;;;;2.53;1.70;;;;;;;;;;5031637;28;20389;-39
2022/06/07 09:15:09;;;;;;;3.42;1.80;;;;;;;;;;5034332;28;20029;-38
2022/06/07 09:17:47;;;;;;;2.05;1.85;;;;;;;;;;5039597;28;20060;-38
2022/06/07 09:20:16;;;;;;;1.92;1.67;;;;;;;;;;5032480;28;20037;-40
2022/06/07 09:22:41;;;;;;;;;;;;;;;;;;5026220;28;20068;-39
2022/06/07 09:25:09;;;;;;;3.67;1.93;;;;;;;;;;5023784;28;19974;-39
2022/06/07 09:27:35;;;;;;;3.80;1.58;;;;;;;;;;5019939;28;20021;-39
2022/06/07 09:30:17;;;;;;;6.40;1.75;;;;;;;;;;5019566;28;20080;-38
2022/06/07 09:32:45;;;;;;;2.78;1.80;;;;;;;;;;5026952;28;20025;-39
2022/06/07 09:35:22;;;;;;;2.03;1.80;;;;;;;;;;5033124;28;20013;-39
2022/06/07 09:37:53;;;;;;;2.03;1.70;;;;;;;;;;5034336;28;20079;-38
2022/06/07 09:40:30;;;;;;;4.72;1.90;;;;;;;;;;5032766;28;20024;-38
2022/06/07 09:43:28;;;;;;;4.85;1.73;;;;;;;;;;5032667;28;20021;-38
2022/06/07 09:45:55;;;;;;;2.03;1.65;;;;;;;;;;5036730;28;20051;-39
2022/06/07 09:48:24;;;;;;;2.67;1.90;;;;;;;;;;5052140;28;20032;-38
2022/06/07 09:50:57;;;;;;;4.22;1.67;;;;;;;;;;5054133;28;20372;-38
2022/06/07 09:53:23;;;;;;;5.70;1.70;;;;;;;;;;5052334;28;20029;-39
2022/06/07 09:55:52;;;;;;;4.68;2.13;;;;;;;;;;5037202;28;20022;-39
2022/06/07 09:58:18;;;;;;;2.95;1.83;;;;;;;;;;5018886;28;20113;-38
2022/06/07 10:00:48;;;;;;;4.07;1.80;;;;;;;;;;5023868;28;20471;-38
2022/06/07 10:03:19;;;;;;;3.78;1.60;;;;;;;;;;5023975;28;20022;-39
2022/06/07 10:05:51;;;;;;;2.17;1.70;;;;;;;;;;5025686;28;20184;-38
2022/06/07 10:08:16;;;;;;;1.75;1.55;;;;;;;;;;5032940;28;20029;-39
2022/06/07 10:10:42;;;;;;;2.07;1.90;;;;;;;;;;5052341;28;20039;-39
2022/06/07 10:13:07;;;;;;;1.93;1.70;;;;;;;;;;5053277;28;20021;-39
2022/06/07 10:15:40;;;;;;;2.10;1.40;;;;;;;;;;5032133;28;20041;-39
2022/06/07 10:18:08;;;;;;;2.38;1.50;;;;;;;;;;5034533;28;20350;-38
2022/06/07 10:20:33;;;;;;;;;;;;;;;;;;5053801;28;20025;-39
2022/06/07 10:23:17;;;;;;;2.20;1.50;;;;;;;;;;5053370;28;19974;-40
2022/06/07 10:25:49;;;;;;;1.30;1.20;;;;;;;;;;5034855;28;20389;-39
2022/06/07 10:28:43;;;;;;;1.80;1.70;;;;;;;;;;5024270;28;20037;-38
2022/06/07 10:31:22;;;;;;;4.13;1.80;;;;;;;;;;5022222;28;20029;-39
2022/06/07 10:33:52;;;;;;;5.73;1.77;;;;;;;;;;5044705;28;20021;-38
2022/06/07 10:36:33;;;;;;;2.95;1.70;;;;;;;;;;5043850;28;20275;-39
2022/06/07 10:39:10;;;;;;;2.97;1.85;;;;;;;;;;5023681;28;20025;-40
2022/06/07 10:41:55;;;;;;;1.70;1.60;;;;;;;;;;5032970;28;20439;-41
2022/06/07 10:44:29;;;;;;;2.00;1.80;;;;;;;;;;5032259;28;20045;-41
2022/06/07 10:46:55;;;;;;;1.88;1.70;;;;;;;;;;5033350;28;20068;-40
2022/06/07 10:49:56;;;;;;;1.65;1.55;;;;;;;;;;5031884;28;20042;-40
2022/06/07 10:52:21;;;;;;;1.65;1.50;;;;;;;;;;5030168;28;20032;-40
2022/06/07 10:54:49;;;;;;;3.53;1.65;;;;;;;;;;5016513;28;20025;-41
2022/06/07 10:57:30;;;;;;;1.70;1.55;;;;;;;;;;5026867;28;20032;-39
2022/06/07 10:59:57;;;;;;;1.90;1.80;;;;;;;;;;5029268;28;20743;-41
2022/06/07 11:02:22;;;;;;;11.10;2.40;;;;;;;;;;5031007;28;20385;-39
2022/06/07 11:10:30;;;;;;;5.85;2.20;;;;;;;;;;5024072;28;20064;-40
2022/06/07 11:12:59;;;;;;;1.63;1.52;;;;;;;;;;5045810;28;20112;-40
2022/06/07 11:15:31;;;;;;;3.92;1.73;;;;;;;;;;5026748;28;20037;-41
2022/06/07 11:18:25;;;;;;;4.20;1.80;;;;;;;;;;5029653;28;20021;-47
2022/06/07 11:21:10;;;;;;;2.88;1.60;;;;;;;;;;5020312;28;20033;-40
2022/06/07 11:23:35;;;;;;;2.80;1.80;;;;;;;;;;5037087;28;20476;-40
2022/06/07 11:26:00;;;;;;;3.50;1.60;;;;;;;;;;5032472;28;20025;-42
2022/06/07 11:28:46;;;;;;;5.35;2.00;;;;;;;;;;5029498;28;20341;-40
2022/06/07 11:31:20;;;;;;;3.50;1.65;;;;;;;;;;5024440;28;20038;-40
2022/06/07 11:33:52;;;;;;;3.20;2.10;;;;;;;;;;5029631;28;20079;-39
2022/06/07 11:36:20;;;;;;;2.03;1.63;;;;;;;;;;5026871;28;20036;-41
2022/06/07 11:38:46;;;;;;;;;;;;;;;;;;5025987;28;20033;-41
2022/06/07 11:41:37;;;;;;;4.30;1.63;;;;;;;;;;5023725;28;19912;-40
2022/06/07 11:44:10;;;;;;;2.10;1.70;;;;;;;;;;5016120;28;20667;-40
2022/06/07 11:46:35;;;;;;;6.07;1.80;;;;;;;;;;5026176;28;20041;-41
2022/06/07 11:49:25;;;;;;;4.50;1.88;;;;;;;;;;5017616;28;20033;-41
2022/06/07 11:51:56;;;;;;;2.45;1.80;;;;;;;;;;5017771;28;20034;-45
2022/06/07 11:54:29;;;;;;;4.97;1.60;;;;;;;;;;5021632;28;20034;-40
2022/06/07 11:57:04;;;;;;;1.88;1.77;;;;;;;;;;5028991;28;20037;-41
2022/06/07 11:59:41;;;;;;;3.08;1.60;;;;;;;;;;5017356;28;20025;-41
2022/06/07 12:02:06;;;;;;;1.95;1.80;;;;;;;;;;5027424;28;20097;-44
2022/06/07 12:04:36;;;;;;;4.03;1.90;;;;;;;;;;5020504;28;20495;-40
2022/06/07 12:07:09;;;;;;;3.85;2.20;;;;;;;;;;5014110;28;20477;-40
2022/06/07 12:09:35;;;;;;;4.50;1.92;;;;;;;;;;5028884;28;20045;-43
2022/06/07 12:12:16;;;;;;;3.05;1.70;;;;;;;;;;5032315;28;20056;-41
2022/06/07 12:14:42;;;;;;;3.65;1.58;;;;;;;;;;5026387;28;20025;-40
2022/06/07 12:17:34;;;;;;;3.40;1.65;;;;;;;;;;5026536;28;20032;-40
2022/06/07 12:19:59;;;;;;;4.72;1.98;;;;;;;;;;5022064;28;20033;-40
2022/06/07 12:22:28;;;;;;;5.07;2.30;;;;;;;;;;5034721;28;20376;-40
2022/06/07 12:25:09;;;;;;;6.65;2.15;;;;;;;;;;5049881;28;20028;-40
2022/06/07 12:27:44;;;;;;;2.83;1.95;;;;;;;;;;5050446;28;20475;-39
2022/06/07 12:30:25;;;;;;;2.92;1.80;;;;;;;;;;5050395;28;20025;-39
2022/06/07 12:32:51;;;;;;;2.17;1.98;;;;;;;;;;5020657;28;20465;-39
2022/06/07 12:35:23;;;;;;;3.58;2.13;;;;;;;;;;5032553;28;20060;-42
2022/06/07 12:37:59;;;;;;;3.10;2.17;;;;;;;;;;5030445;28;20025;-40
2022/06/07 12:40:54;;;;;;;5.90;2.30;;;;;;;;;;5029621;28;20041;-39
2022/06/07 12:43:21;;;;;;;3.35;2.00;;;;;;;;;;5019754;28;20048;-38
2022/06/07 12:45:54;;;;;;;2.67;1.95;;;;;;;;;;5031640;28;20042;-39
2022/06/07 12:48:20;;;;;;;6.65;2.17;;;;;;;;;;5025303;28;20489;-39
2022/06/07 12:50:47;;;;;;;4.82;2.42;;;;;;;;;;5024501;28;20132;-40
2022/06/07 12:53:23;;;;;;;2.15;1.83;;;;;;;;;;5027793;28;20030;-40
2022/06/07 12:56:04;;;;;;;6.35;2.00;;;;;;;;;;5026407;28;20377;-39
2022/06/07 12:58:33;;;;;;;2.53;1.98;;;;;;;;;;5025383;28;20045;-40
2022/06/07 13:00:59;;;;;;;9.27;1.98;;;;;;;;;;5046279;28;20132;-40
2022/06/07 13:03:32;;;;;;;6.60;1.88;;;;;;;;;;5030168;28;20508;-39
2022/06/07 13:06:14;;;;;;;2.90;1.80;;;;;;;;;;5024227;28;20096;-38
2022/06/07 13:08:40;;;;;;;5.40;1.80;;;;;;;;;;5024696;28;20419;-37
2022/06/07 13:11:10;;;;;;;2.25;1.63;;;;;;;;;;5029913;28;20548;-39
2022/06/07 13:13:38;;;;;;;6.50;2.33;;;;;;;;;;5017261;28;20436;-40
2022/06/07 13:16:09;;;;;;;4.13;1.60;;;;;;;;;;5021342;28;20057;-42
2022/06/07 13:18:43;;;;;;;3.47;1.75;;;;;;;;;;5026425;28;20022;-39
2022/06/07 13:21:11;;;;;;;3.95;1.92;;;;;;;;;;5017305;28;20037;-38
2022/06/07 13:23:38;;;;;;;1.90;1.70;;;;;;;;;;5020880;28;20096;-43
2022/06/07 13:26:12;;;;;;;3.67;2.13;;;;;;;;;;5019328;28;20057;-43
2022/06/07 13:28:37;;;;;;;4.43;1.77;;;;;;;;;;5022974;28;20026;-41
2022/06/07 13:31:03;;;;;;;2.03;1.77;;;;;;;;;;5020122;28;20036;-40
2022/06/07 13:33:28;;;;;;;8.63;1.98;;;;;;;;;;5018851;28;20017;-40
2022/06/07 13:35:57;;;;;;;2.88;2.10;;;;;;;;;;5020421;28;20040;-41
2022/06/07 13:38:22;;;;;;;;;;;;;;;;;;5021220;28;20022;-41
2022/06/07 13:40:58;;;;;;;4.18;1.98;;;;;;;;;;5019081;28;20482;-40
2022/06/07 13:43:24;;;;;;;4.00;1.95;;;;;;;;;;5014636;28;20013;-42
2022/06/07 13:45:50;;;;;;;3.78;1.63;;;;;;;;;;5018438;28;20512;-41
2022/06/07 13:48:20;;;;;;;2.45;1.85;;;;;;;;;;5018112;28;20045;-42
2022/06/07 13:53:57;;;;;;;2.40;2.05;;;;;;;;;;5019369;28;20036;-40
2022/06/07 13:56:23;;;;;;;2.65;1.80;;;;;;;;;;5019501;28;20030;-39
2022/06/07 13:58:52;;;;;;;5.88;1.80;;;;;;;;;;5019488;28;20029;-41
2022/06/07 14:01:17;;;;;;;;;;;;;;;;;;5021487;28;20033;-40
2022/06/07 14:04:03;;;;;;;2.50;2.00;;;;;;;;;;5022465;28;20615;-40
2022/06/07 14:06:33;;;;;;;2.83;1.83;;;;;;;;;;5027339;28;20044;-38
2022/06/07 14:08:59;;;;;;;21.98;3.03;;;;;;;;;;5024605;28;20049;-40
2022/06/07 14:11:25;;;;;;;6.68;1.88;;;;;;;;;;5027146;28;20033;-40
2022/06/07 14:13:51;;;;;;;3.92;2.08;;;;;;;;;;5021627;28;20029;-42
2022/06/07 14:16:24;;;;;;;1.98;1.83;;;;;;;;;;5022970;28;20113;-39
2022/06/07 14:18:50;;;;;;;7.18;2.00;;;;;;;;;;5033859;28;20029;-40
2022/06/07 14:21:15;;;;;;;6.15;2.03;;;;;;;;;;5032435;28;20033;-39
2022/06/07 14:23:41;;;;;;;7.90;2.30;;;;;;;;;;5031154;28;20045;-40
2022/06/07 14:26:07;;;;;;;5.63;2.22;;;;;;;;;;5030559;28;20029;-44
2022/06/07 14:28:33;;;;;;;3.42;1.85;;;;;;;;;;5021529;28;20088;-39
2022/06/07 14:30:58;;;;;;;4.40;2.35;;;;;;;;;;5024633;28;20021;-40
2022/06/07 14:33:24;;;;;;;2.83;1.75;;;;;;;;;;5019772;28;20032;-40
2022/06/07 14:35:50;;;;;;;5.20;2.10;;;;;;;;;;5026826;28;20048;-39
2022/06/07 14:38:17;;;;;;;5.97;1.95;;;;;;;;;;5020713;28;20531;-40
2022/06/07 14:40:43;;;;;;;4.95;2.22;;;;;;;;;;5029413;28;20585;-42
2022/06/07 14:43:11;;;;;;;2.67;2.00;;;;;;;;;;5048661;28;20040;-41
2022/06/07 14:45:40;;;;;;;2.42;2.00;;;;;;;;;;5048857;28;20053;-42
2022/06/07 14:48:07;;;;;;;2.17;1.60;;;;;;;;;;5052279;28;20029;-39
2022/06/07 14:50:33;;;;;;;2.10;1.85;;;;;;;;;;5052651;28;20060;-39
2022/06/07 14:52:59;;;;;;;3.92;2.00;;;;;;;;;;5051482;28;20063;-40
2022/06/07 14:55:25;;;;;;;4.53;1.73;;;;;;;;;;5051725;28;20636;-40
2022/06/07 14:57:51;;;;;;;4.78;2.15;;;;;;;;;;5052048;28;20476;-40
2022/06/07 15:00:18;;;;;;;4.18;2.10;;;;;;;;;;5051700;28;20024;-40
2022/06/07 15:02:49;;;;;;;3.13;2.28;;;;;;;;;;5049580;28;20029;-40
2022/06/07 15:05:20;;;;;;;2.60;1.85;;;;;;;;;;5050628;28;20093;-40
2022/06/07 15:07:47;;;;;;;3.08;2.00;;;;;;;;;;5050589;28;20029;-39
2022/06/07 15:10:14;;;;;;;2.55;2.00;;;;;;;;;;5052892;28;20071;-39
2022/06/07 15:12:40;;;;;;;2.35;2.03;;;;;;;;;;5052717;28;20104;-40